CheckWX is a tool to help pilots better visualize weather data.  It is not intended as a substitute for an official pre-flight weather briefing.

03:39:51 UTC

KINF METAR
Inverness Airport
Inverness, Florida, USA
Current

4 hours ago

KINF 052355Z AUTO 00000KT 10SM CLR 10/08 A3016 RMK AO2
Observed
Dec-5 @ 23:55 UTC
Visibility
10 SM
Flight Rules
VFR
Cloud Levels
  • Clear skies
Temperature
10°C / 50°F
Dewpoint
C / 46°F
Humidity
88%
Altimeter
30.16" Hg
Pressure
1021.32 hPa
Previous

4 hours ago

KINF 052335Z AUTO 00000KT 7SM CLR 12/08 A3015 RMK AO2
Observed
Dec-5 @ 23:35 UTC
Visibility
7 SM
Flight Rules
VFR
Cloud Levels
  • Clear skies
Temperature
12°C / 54°F
Dewpoint
C / 46°F
Humidity
77%
Altimeter
30.15" Hg
Pressure
1021.02 hPa
Previous

4 hours ago

KINF 052315Z AUTO 00000KT 7SM CLR 12/08 A3014 RMK AO2
Observed
Dec-5 @ 23:15 UTC
Visibility
7 SM
Flight Rules
VFR
Cloud Levels
  • Clear skies
Temperature
12°C / 54°F
Dewpoint
C / 46°F
Humidity
77%
Altimeter
30.14" Hg
Pressure
1020.62 hPa